Hauptseite
METAR-TAF:

METAR-TAF

Flughäfen :

Hall Beach, Nunavut, Kanada

Breite: 68-47N, Länge: 081-15W, Höhe: 8 m

Beobachtung

Neuester Wetterbericht von vor 20 Minuten, um 08:00 UTC
Wind 13 kt aus Nordwest
Temperatur -29°C
Luftfeuchtigkeit 75%
Luftdruck 1006 hPa
Sichtweite: 14.5 km
Durchbrochene Bewölkung in der Höhe von 6000 ft
Geschlossene Wolkendecke in der Höhe von 8000 ft

METAR: CYUX 190800Z AUTO 32013KT 9SM BKN060 OVC080 M29/M32 A2972 RMK SLP066

Zeit: 03:20 (08:20 UTC)

Prognose

Neuester Wetterbericht von vor 1 Stunde und 42 Minuten, um 06:38 UTC
Gültige Prognose vom 19 um 07 UTC bis 19 um 19 UTC
Wind 12 kt aus Nordwest
Sichtweite: 10 km
Aufgelockert bewölkt in der Höhe von 14000 ft

TAF: CYUX 190638Z 1907/1919 32012KT P6SM SCT140 RMK FCST BASED ON AUTO OBS. NXT FCST BY 191300Z

Wetterbeobachtungen und Prognosen von mehr als 4000 Flughäfen (METAR und TAF Bericht).

Die verfügbaren Stationen werden durch gelbe und rote Markierungen auf der Karte dargestellt.

Führen Sie die Maus auf sie, um den Namen der Station zu sehen.

Darauf klicken, um die Beobachtung von Wetterbeobachtungen und Prognosen zu sehen.

Um die Karte zu ändern : klicken Sie auf den grünen Tasten mit einem schwarzen Kreuz Zum Vergrößern, auf den grünen Button mit einem Gedankenstrich zu verkleinern, oder auf die grünen Pfeile für benachbarte Karten.


METAR-TAF: